Time;durP1;ratioP1;P1;durP2;ratioP2;P2;SDS_P1;SDS_P2;PMS_P1;PMS_P2;Temp;Humidity;BMP_temperature;BMP_pressure;BME280_temperature;BME280_humidity;BME280_pressure;Samples;Min_cycle;Max_cycle;Signal;HPM_P1;HPM_P2
2022/03/31 00:01:21;;;;;;;9.23;6.32;;;;;;;;;;6045059;23;20029;-85
2022/03/31 00:03:49;;;;;;;10.30;5.35;;;;;;;;;;6076265;23;20022;-85
2022/03/31 00:06:17;;;;;;;11.65;7.13;;;;;;;;;;6066788;23;20042;-85
2022/03/31 00:08:45;;;;;;;8.88;7.70;;;;;;;;;;6071702;23;20073;-85
2022/03/31 00:11:13;;;;;;;10.63;7.07;;;;;;;;;;6040997;23;20460;-85
2022/03/31 00:13:43;;;;;;;13.77;8.63;;;;;;;;;;6043693;23;20031;-85
2022/03/31 00:16:11;;;;;;;11.48;7.00;;;;;;;;;;6040379;23;20025;-85
2022/03/31 00:18:39;;;;;;;12.63;7.85;;;;;;;;;;6016580;23;20026;-85
2022/03/31 00:21:07;;;;;;;8.75;5.90;;;;;;;;;;6064230;23;20039;-85
2022/03/31 00:23:38;;;;;;;10.55;8.05;;;;;;;;;;6075626;23;20015;-85
2022/03/31 00:26:08;;;;;;;8.82;7.10;;;;;;;;;;6042275;23;20033;-86
2022/03/31 00:28:36;;;;;;;8.63;7.05;;;;;;;;;;6072737;23;20023;-85
2022/03/31 00:31:04;;;;;;;9.63;8.20;;;;;;;;;;6041120;23;20363;-85
2022/03/31 00:33:32;;;;;;;8.40;7.05;;;;;;;;;;6039636;23;20034;-81
2022/03/31 00:36:00;;;;;;;11.88;7.35;;;;;;;;;;6060045;23;20027;-82
2022/03/31 00:38:28;;;;;;;8.55;5.68;;;;;;;;;;6069715;23;20026;-81
2022/03/31 00:40:56;;;;;;;10.63;8.38;;;;;;;;;;6067748;23;20033;-81
2022/03/31 00:43:24;;;;;;;8.85;7.13;;;;;;;;;;6102607;23;20469;-81
2022/03/31 00:45:56;;;;;;;10.18;6.97;;;;;;;;;;6096954;23;20033;-81
2022/03/31 00:48:24;;;;;;;19.40;8.32;;;;;;;;;;6043710;23;20022;-81
2022/03/31 00:50:52;;;;;;;11.35;7.82;;;;;;;;;;6046854;23;20018;-81
2022/03/31 00:53:20;;;;;;;11.68;7.55;;;;;;;;;;6066921;23;20458;-81
2022/03/31 00:56:00;;;;;;;14.43;7.13;;;;;;;;;;6065670;23;20022;-80
2022/03/31 00:58:28;;;;;;;11.13;7.83;;;;;;;;;;6093654;23;20027;-80
2022/03/31 01:00:56;;;;;;;7.47;6.80;;;;;;;;;;6043956;23;20259;-80
2022/03/31 01:03:24;;;;;;;11.48;6.65;;;;;;;;;;6103984;23;20442;-80
2022/03/31 01:05:52;;;;;;;7.65;6.35;;;;;;;;;;6096393;23;20034;-80
2022/03/31 01:08:21;;;;;;;10.00;7.35;;;;;;;;;;6075485;23;20050;-80
2022/03/31 01:10:53;;;;;;;;;;;;;;;;;;6087680;23;20446;-80
2022/03/31 01:13:21;;;;;;;13.40;9.93;;;;;;;;;;6069519;23;19917;-85
2022/03/31 01:15:49;;;;;;;12.48;7.45;;;;;;;;;;6079973;23;20018;-85
2022/03/31 01:18:17;;;;;;;8.63;7.32;;;;;;;;;;6095451;23;20026;-85
2022/03/31 01:21:05;;;;;;;13.38;9.32;;;;;;;;;;6101706;23;20033;-85
2022/03/31 01:24:29;;;;;;;9.75;7.85;;;;;;;;;;6103925;23;20025;-85
2022/03/31 01:27:58;;;;;;;9.52;7.13;;;;;;;;;;6081303;23;20072;-85
2022/03/31 01:31:23;;;;;;;10.43;8.05;;;;;;;;;;6069651;23;20034;-85
2022/03/31 01:34:50;;;;;;;12.38;6.85;;;;;;;;;;6026983;23;20022;-85
2022/03/31 01:38:22;;;;;;;8.75;6.57;;;;;;;;;;6043576;23;20367;-85
2022/03/31 01:41:32;;;;;;;8.63;6.88;;;;;;;;;;6018199;23;20026;-85
2022/03/31 01:44:00;;;;;;;8.63;7.72;;;;;;;;;;6076387;23;20011;-85
2022/03/31 01:46:29;;;;;;;12.50;10.25;;;;;;;;;;6066057;23;20383;-85
2022/03/31 01:48:57;;;;;;;11.77;9.07;;;;;;;;;;6072012;23;20019;-85
2022/03/31 01:51:25;;;;;;;11.13;6.65;;;;;;;;;;6051048;23;20022;-85
2022/03/31 01:53:53;;;;;;;10.90;8.40;;;;;;;;;;6067793;23;20015;-85
2022/03/31 01:56:21;;;;;;;13.52;8.15;;;;;;;;;;6074712;23;20443;-85
2022/03/31 01:58:49;;;;;;;11.63;8.73;;;;;;;;;;6076163;23;20027;-85
2022/03/31 02:01:17;;;;;;;12.13;7.53;;;;;;;;;;6045967;23;20023;-85
2022/03/31 02:03:45;;;;;;;13.32;9.18;;;;;;;;;;6051332;23;20022;-84
2022/03/31 02:06:13;;;;;;;9.05;7.57;;;;;;;;;;6067507;23;20355;-84
2022/03/31 02:08:41;;;;;;;9.52;6.75;;;;;;;;;;6047029;23;20725;-85
2022/03/31 02:11:09;;;;;;;11.63;7.88;;;;;;;;;;6076121;23;20021;-85
2022/03/31 02:13:37;;;;;;;12.85;7.53;;;;;;;;;;6044166;23;20034;-85
2022/03/31 02:16:24;;;;;;;12.25;7.75;;;;;;;;;;6076076;23;20022;-85
2022/03/31 02:19:58;;;;;;;9.20;6.65;;;;;;;;;;6073876;23;20034;-86
2022/03/31 02:23:24;;;;;;;18.52;10.45;;;;;;;;;;6031325;23;20038;-85
2022/03/31 02:27:02;;;;;;;18.88;12.48;;;;;;;;;;6072853;23;20464;-85
2022/03/31 02:30:33;;;;;;;26.15;12.70;;;;;;;;;;6067579;23;20026;-84
2022/03/31 02:33:31;;;;;;;14.18;10.15;;;;;;;;;;6069646;23;20027;-85
2022/03/31 02:35:59;;;;;;;13.25;8.13;;;;;;;;;;6058779;23;20030;-85
2022/03/31 02:38:27;;;;;;;12.88;7.00;;;;;;;;;;6093935;23;20018;-85
2022/03/31 02:40:55;;;;;;;28.52;12.55;;;;;;;;;;6075361;23;20027;-84
2022/03/31 02:43:24;;;;;;;14.57;11.73;;;;;;;;;;6105228;23;20017;-85
2022/03/31 02:45:52;;;;;;;28.85;15.80;;;;;;;;;;6097213;23;20026;-84
2022/03/31 02:48:21;;;;;;;25.50;14.57;;;;;;;;;;6103143;23;20014;-84
2022/03/31 02:50:49;;;;;;;22.17;10.73;;;;;;;;;;6105264;23;20041;-85
2022/03/31 02:56:08;;;;;;;22.83;12.93;;;;;;;;;;6106179;23;20018;-85
2022/03/31 02:58:35;;;;;;;;;;;;;;;;;;6095425;23;20497;-85
2022/03/31 03:01:03;;;;;;;19.05;12.90;;;;;;;;;;6102424;23;19917;-84
2022/03/31 03:03:32;;;;;;;24.42;12.73;;;;;;;;;;6106343;23;20330;-85
2022/03/31 03:06:01;;;;;;;22.70;13.95;;;;;;;;;;6098481;23;20053;-85
2022/03/31 03:08:31;;;;;;;20.95;13.50;;;;;;;;;;6070033;23;20030;-85
2022/03/31 03:11:00;;;;;;;20.98;14.82;;;;;;;;;;6045353;23;20026;-81
2022/03/31 03:13:28;;;;;;;24.63;14.88;;;;;;;;;;6074719;23;20029;-85
2022/03/31 03:15:56;;;;;;;18.17;12.82;;;;;;;;;;6071253;23;20346;-85
2022/03/31 03:18:24;;;;;;;20.35;14.95;;;;;;;;;;6070004;23;20037;-85
2022/03/31 03:20:52;;;;;;;20.42;13.50;;;;;;;;;;6077384;23;20023;-85
2022/03/31 03:23:20;;;;;;;18.27;12.02;;;;;;;;;;6104652;23;20018;-85
2022/03/31 03:25:52;;;;;;;26.38;14.15;;;;;;;;;;6098644;23;20030;-85
2022/03/31 03:28:19;;;;;;;;;;;;;;;;;;6080108;23;20025;-85
2022/03/31 03:30:47;;;;;;;20.70;13.38;;;;;;;;;;6106193;23;20348;-84
2022/03/31 03:33:16;;;;;;;20.95;13.25;;;;;;;;;;6045943;23;20489;-85
2022/03/31 03:35:44;;;;;;;26.90;14.15;;;;;;;;;;6071286;23;20022;-84
2022/03/31 03:38:14;;;;;;;22.15;15.63;;;;;;;;;;6071302;23;20026;-84
2022/03/31 03:40:43;;;;;;;24.17;14.50;;;;;;;;;;6077990;23;20018;-85
2022/03/31 03:43:11;;;;;;;25.00;15.20;;;;;;;;;;6071124;23;20021;-85
2022/03/31 03:45:39;;;;;;;24.92;15.85;;;;;;;;;;6046488;23;20861;-85
2022/03/31 03:48:08;;;;;;;20.15;12.55;;;;;;;;;;6080512;23;20017;-85
2022/03/31 03:50:38;;;;;;;20.05;13.90;;;;;;;;;;6098353;23;20029;-85
2022/03/31 03:53:06;;;;;;;24.05;12.63;;;;;;;;;;6104359;23;20025;-84
2022/03/31 03:55:38;;;;;;;18.95;12.27;;;;;;;;;;6076143;23;20013;-84
2022/03/31 03:58:06;;;;;;;;;;;;;;;;;;6125590;23;20362;-84
2022/03/31 04:00:34;;;;;;;20.85;14.65;;;;;;;;;;6133278;23;19924;-84
2022/03/31 04:03:02;;;;;;;21.73;11.63;;;;;;;;;;6098994;23;20025;-84
2022/03/31 04:05:31;;;;;;;28.63;16.25;;;;;;;;;;6129260;23;20026;-84
2022/03/31 04:07:59;;;;;;;19.52;11.82;;;;;;;;;;6134918;23;20442;-85
2022/03/31 04:10:27;;;;;;;17.30;12.68;;;;;;;;;;6099632;23;20026;-84
2022/03/31 04:12:55;;;;;;;19.52;12.85;;;;;;;;;;6105573;23;20033;-84
2022/03/31 04:15:23;;;;;;;17.58;13.88;;;;;;;;;;6135224;23;20442;-84
2022/03/31 04:17:51;;;;;;;18.70;14.27;;;;;;;;;;6126965;23;20025;-84
2022/03/31 04:20:19;;;;;;;17.30;11.98;;;;;;;;;;6133944;23;20018;-84
2022/03/31 04:22:47;;;;;;;24.77;13.80;;;;;;;;;;6134813;23;20342;-84
2022/03/31 04:25:15;;;;;;;16.70;12.52;;;;;;;;;;6104062;23;20029;-85
2022/03/31 04:27:43;;;;;;;21.27;13.07;;;;;;;;;;6135031;23;20014;-84
2022/03/31 04:30:12;;;;;;;21.35;14.02;;;;;;;;;;6125703;23;20033;-84
2022/03/31 04:32:40;;;;;;;20.55;13.07;;;;;;;;;;6132439;23;20036;-84
2022/03/31 04:35:10;;;;;;;17.60;11.77;;;;;;;;;;6132555;23;20022;-84
2022/03/31 04:37:39;;;;;;;24.83;14.50;;;;;;;;;;6101986;23;20025;-84
2022/03/31 04:40:08;;;;;;;19.48;14.05;;;;;;;;;;6134325;23;20013;-85
2022/03/31 04:42:36;;;;;;;26.80;13.93;;;;;;;;;;6096783;23;20477;-84
2022/03/31 04:45:05;;;;;;;18.02;12.27;;;;;;;;;;6073591;23;20025;-83
2022/03/31 04:47:33;;;;;;;25.15;13.35;;;;;;;;;;6097050;23;20029;-83
2022/03/31 04:50:01;;;;;;;19.83;13.65;;;;;;;;;;6125133;23;20026;-85
2022/03/31 04:52:29;;;;;;;19.88;12.52;;;;;;;;;;6131494;23;20018;-86
2022/03/31 04:54:57;;;;;;;20.80;16.25;;;;;;;;;;6133681;23;20018;-87
2022/03/31 04:57:25;;;;;;;22.10;15.27;;;;;;;;;;6101666;23;20026;-84
2022/03/31 04:59:53;;;;;;;23.50;13.82;;;;;;;;;;6132728;23;20024;-84
2022/03/31 05:02:21;;;;;;;28.42;16.20;;;;;;;;;;6121462;23;20026;-82
2022/03/31 05:04:50;;;;;;;28.00;16.02;;;;;;;;;;6129955;23;20022;-83
2022/03/31 05:07:18;;;;;;;33.20;16.70;;;;;;;;;;6133318;23;20014;-81
2022/03/31 05:09:46;;;;;;;24.08;13.95;;;;;;;;;;6124798;23;20030;-81
2022/03/31 05:12:14;;;;;;;24.38;16.30;;;;;;;;;;6131866;23;20425;-78
2022/03/31 05:14:42;;;;;;;27.67;17.35;;;;;;;;;;6132960;23;20014;-77
2022/03/31 05:17:10;;;;;;;18.17;14.98;;;;;;;;;;6127667;23;20030;-78
2022/03/31 05:19:38;;;;;;;19.63;14.38;;;;;;;;;;6132145;23;20009;-78
2022/03/31 05:22:07;;;;;;;20.10;14.05;;;;;;;;;;6124240;23;20033;-78
2022/03/31 05:24:35;;;;;;;18.42;11.07;;;;;;;;;;6129052;23;20026;-78
2022/03/31 05:27:04;;;;;;;19.33;13.60;;;;;;;;;;6132747;23;20025;-81
2022/03/31 05:29:32;;;;;;;21.45;14.90;;;;;;;;;;6126137;23;20026;-81
2022/03/31 05:32:00;;;;;;;19.33;13.52;;;;;;;;;;6132706;23;20048;-81
2022/03/31 05:34:28;;;;;;;26.58;14.05;;;;;;;;;;6096067;23;20030;-81
2022/03/31 05:36:56;;;;;;;18.80;13.38;;;;;;;;;;6128699;23;20052;-81
2022/03/31 05:39:24;;;;;;;24.25;15.50;;;;;;;;;;6131595;23;20017;-81
2022/03/31 05:41:52;;;;;;;31.80;17.08;;;;;;;;;;6125171;23;20042;-81
2022/03/31 05:44:20;;;;;;;33.55;17.70;;;;;;;;;;6130384;23;20022;-80
2022/03/31 05:46:48;;;;;;;56.40;25.70;;;;;;;;;;6096826;23;20326;-81
2022/03/31 05:49:16;;;;;;;50.42;26.05;;;;;;;;;;6126194;23;20049;-81
2022/03/31 05:51:45;;;;;;;41.28;22.65;;;;;;;;;;6121500;23;20022;-80
2022/03/31 05:54:14;;;;;;;51.20;22.38;;;;;;;;;;6122648;23;20033;-81
2022/03/31 05:56:43;;;;;;;35.33;20.60;;;;;;;;;;6096190;23;20018;-84
2022/03/31 05:59:11;;;;;;;32.70;17.70;;;;;;;;;;6107004;23;20639;-84
2022/03/31 06:01:39;;;;;;;33.28;19.63;;;;;;;;;;6122148;23;20030;-85
2022/03/31 06:04:08;;;;;;;27.70;16.27;;;;;;;;;;6070985;23;20507;-83
2022/03/31 06:06:37;;;;;;;33.03;17.52;;;;;;;;;;6072290;23;20029;-86
2022/03/31 06:09:05;;;;;;;31.65;20.92;;;;;;;;;;6124116;23;20425;-85
2022/03/31 06:11:33;;;;;;;31.98;19.13;;;;;;;;;;6128992;23;20018;-85
2022/03/31 06:14:01;;;;;;;28.25;14.93;;;;;;;;;;6094338;23;20030;-85
2022/03/31 06:16:30;;;;;;;29.90;17.02;;;;;;;;;;6100196;23;20018;-85
2022/03/31 06:18:59;;;;;;;27.13;14.73;;;;;;;;;;6127799;23;20021;-85
2022/03/31 06:21:27;;;;;;;33.92;16.50;;;;;;;;;;6096930;23;20041;-84
2022/03/31 06:23:55;;;;;;;29.38;16.77;;;;;;;;;;6101812;23;20027;-85
2022/03/31 06:26:23;;;;;;;26.10;14.73;;;;;;;;;;6092822;23;20369;-84
2022/03/31 06:28:51;;;;;;;21.75;16.00;;;;;;;;;;6125592;23;20652;-85
2022/03/31 06:31:19;;;;;;;26.90;16.08;;;;;;;;;;6130377;23;20015;-85
2022/03/31 06:33:47;;;;;;;23.13;16.33;;;;;;;;;;6096995;23;20026;-84
2022/03/31 06:36:15;;;;;;;28.58;17.90;;;;;;;;;;6100892;23;20022;-85
2022/03/31 06:38:43;;;;;;;20.88;15.27;;;;;;;;;;6041181;23;20026;-85
2022/03/31 06:41:14;;;;;;;23.98;16.42;;;;;;;;;;6065292;23;20513;-85
2022/03/31 06:43:44;;;;;;;19.38;14.25;;;;;;;;;;6065933;23;20022;-85
2022/03/31 06:46:13;;;;;;;27.40;15.95;;;;;;;;;;6090879;23;20030;-79
2022/03/31 06:48:43;;;;;;;23.92;15.25;;;;;;;;;;6097487;23;20458;-79
2022/03/31 06:51:13;;;;;;;27.48;17.90;;;;;;;;;;6074630;23;20019;-79
2022/03/31 06:53:42;;;;;;;23.75;14.52;;;;;;;;;;6063106;23;20037;-78
2022/03/31 06:56:13;;;;;;;25.30;14.82;;;;;;;;;;6039862;23;20022;-83
2022/03/31 06:58:41;;;;;;;26.00;15.15;;;;;;;;;;6017045;23;20442;-83
2022/03/31 07:01:09;;;;;;;33.40;20.45;;;;;;;;;;6041560;23;20615;-83
2022/03/31 07:03:37;;;;;;;26.08;14.77;;;;;;;;;;6065035;23;20025;-83
2022/03/31 07:06:07;;;;;;;30.60;19.35;;;;;;;;;;6066342;23;20030;-84
2022/03/31 07:08:39;;;;;;;22.05;13.00;;;;;;;;;;6086881;23;20033;-83
2022/03/31 07:11:09;;;;;;;25.02;16.17;;;;;;;;;;6074385;23;20025;-84
2022/03/31 07:13:39;;;;;;;22.40;15.63;;;;;;;;;;6040170;23;20022;-84
2022/03/31 07:16:08;;;;;;;19.23;14.23;;;;;;;;;;6075284;23;20014;-84
2022/03/31 07:18:36;;;;;;;26.40;19.30;;;;;;;;;;6039656;23;20027;-84
2022/03/31 07:21:04;;;;;;;21.25;15.32;;;;;;;;;;6069634;23;20033;-83
2022/03/31 07:23:33;;;;;;;20.45;13.43;;;;;;;;;;6098830;23;20048;-84
2022/03/31 07:26:02;;;;;;;24.77;14.32;;;;;;;;;;6063718;23;20034;-84
2022/03/31 07:28:30;;;;;;;25.17;13.27;;;;;;;;;;6048179;23;20472;-84
2022/03/31 07:30:59;;;;;;;19.67;14.90;;;;;;;;;;6040871;23;20332;-84
2022/03/31 07:33:27;;;;;;;23.92;13.95;;;;;;;;;;6039896;23;20030;-84
2022/03/31 07:36:10;;;;;;;21.88;14.20;;;;;;;;;;6093494;23;20351;-84
2022/03/31 07:39:19;;;;;;;20.23;13.52;;;;;;;;;;6053529;23;20350;-84
2022/03/31 07:41:58;;;;;;;17.60;11.52;;;;;;;;;;6066370;23;20690;-82
2022/03/31 07:44:32;;;;;;;20.20;13.98;;;;;;;;;;6015852;23;20350;-83
2022/03/31 07:47:26;;;;;;;17.52;11.68;;;;;;;;;;6088909;23;20025;-83
2022/03/31 07:50:23;;;;;;;21.17;11.93;;;;;;;;;;6070070;23;20023;-83
2022/03/31 07:52:51;;;;;;;20.85;12.27;;;;;;;;;;6095384;23;20026;-83
2022/03/31 07:55:19;;;;;;;17.58;13.77;;;;;;;;;;6074280;23;20019;-83
2022/03/31 07:57:49;;;;;;;22.58;13.60;;;;;;;;;;6091262;23;20041;-83
2022/03/31 08:00:18;;;;;;;21.27;12.93;;;;;;;;;;6098110;23;20019;-83
2022/03/31 08:02:47;;;;;;;16.88;13.25;;;;;;;;;;6040104;23;20791;-84
2022/03/31 08:05:20;;;;;;;17.95;12.00;;;;;;;;;;6040081;23;20027;-84
2022/03/31 08:07:49;;;;;;;19.58;14.20;;;;;;;;;;6064056;23;20354;-83
2022/03/31 08:10:19;;;;;;;23.92;14.35;;;;;;;;;;6089775;23;20031;-83
2022/03/31 08:12:53;;;;;;;21.73;12.45;;;;;;;;;;6087667;23;20779;-83
2022/03/31 08:15:23;;;;;;;17.98;12.82;;;;;;;;;;6040268;23;20023;-83
2022/03/31 08:17:51;;;;;;;19.45;13.00;;;;;;;;;;6038578;23;20045;-83
2022/03/31 08:20:19;;;;;;;17.40;11.60;;;;;;;;;;6071891;23;20022;-85
2022/03/31 08:22:48;;;;;;;19.85;11.23;;;;;;;;;;6098867;23;20021;-82
2022/03/31 08:25:17;;;;;;;16.50;10.75;;;;;;;;;;6093859;23;20033;-81
2022/03/31 08:27:45;;;;;;;19.50;12.18;;;;;;;;;;6073018;23;20041;-81
2022/03/31 08:30:16;;;;;;;17.48;9.85;;;;;;;;;;6090385;23;20026;-81
2022/03/31 08:32:46;;;;;;;21.17;13.75;;;;;;;;;;6096239;23;20026;-86
2022/03/31 08:35:16;;;;;;;17.65;11.15;;;;;;;;;;6070892;23;20030;-82
2022/03/31 08:37:44;;;;;;;21.80;13.63;;;;;;;;;;6087029;23;20030;-81
2022/03/31 08:40:13;;;;;;;17.75;11.43;;;;;;;;;;6097863;23;20018;-83
2022/03/31 08:42:44;;;;;;;19.02;12.75;;;;;;;;;;6074141;23;20015;-83
2022/03/31 08:45:17;;;;;;;26.73;15.55;;;;;;;;;;6067794;23;20026;-80
2022/03/31 08:47:47;;;;;;;17.73;11.90;;;;;;;;;;6098873;23;20037;-82
2022/03/31 08:50:18;;;;;;;21.33;14.05;;;;;;;;;;6039683;23;20026;-82
2022/03/31 08:52:47;;;;;;;20.17;12.35;;;;;;;;;;6094149;23;20038;-82
2022/03/31 08:55:15;;;;;;;22.75;12.35;;;;;;;;;;6040063;23;20022;-82
2022/03/31 08:57:43;;;;;;;21.35;11.30;;;;;;;;;;6066539;23;20034;-82
2022/03/31 09:00:12;;;;;;;23.65;15.95;;;;;;;;;;6071927;23;20026;-83
2022/03/31 09:02:51;;;;;;;18.98;12.52;;;;;;;;;;6039964;23;20033;-82
2022/03/31 09:05:19;;;;;;;22.15;12.05;;;;;;;;;;6093367;23;20033;-82
2022/03/31 09:07:52;;;;;;;20.60;11.90;;;;;;;;;;6072133;23;20014;-82
2022/03/31 09:10:30;;;;;;;27.58;14.38;;;;;;;;;;6039650;23;20030;-82
2022/03/31 09:13:00;;;;;;;20.50;14.43;;;;;;;;;;6093290;23;20034;-82
2022/03/31 09:15:34;;;;;;;17.90;12.85;;;;;;;;;;6098466;23;20026;-81
2022/03/31 09:18:02;;;;;;;21.02;12.38;;;;;;;;;;6061973;23;20035;-81
2022/03/31 09:20:37;;;;;;;17.80;11.40;;;;;;;;;;6039371;23;20030;-81
2022/03/31 09:23:06;;;;;;;17.25;10.32;;;;;;;;;;6072823;23;20014;-81
2022/03/31 09:25:35;;;;;;;18.50;11.15;;;;;;;;;;6062796;23;20034;-81
2022/03/31 09:28:18;;;;;;;19.45;12.30;;;;;;;;;;6061262;23;20018;-81
2022/03/31 09:30:47;;;;;;;22.83;12.50;;;;;;;;;;6063231;23;20022;-81
2022/03/31 09:33:26;;;;;;;19.08;14.35;;;;;;;;;;6067664;23;20030;-82
2022/03/31 09:35:58;;;;;;;22.85;13.73;;;;;;;;;;6086920;23;20030;-82
2022/03/31 09:38:27;;;;;;;23.52;14.55;;;;;;;;;;6060113;23;20034;-82
2022/03/31 09:40:55;;;;;;;25.65;14.23;;;;;;;;;;6094390;23;20038;-82
2022/03/31 09:43:23;;;;;;;19.90;13.63;;;;;;;;;;6072966;23;20437;-82
2022/03/31 09:45:51;;;;;;;25.58;13.82;;;;;;;;;;6091498;23;20033;-82
2022/03/31 09:48:20;;;;;;;16.35;11.48;;;;;;;;;;6097090;23;20097;-82
2022/03/31 09:50:49;;;;;;;21.25;13.57;;;;;;;;;;6098769;23;20014;-82
2022/03/31 09:53:17;;;;;;;25.88;13.30;;;;;;;;;;6092850;23;20030;-82
2022/03/31 09:55:47;;;;;;;25.42;17.08;;;;;;;;;;6099013;23;20030;-81
2022/03/31 09:58:19;;;;;;;18.67;14.57;;;;;;;;;;6089072;23;20030;-82
2022/03/31 10:00:48;;;;;;;22.67;15.00;;;;;;;;;;6095393;23;20034;-81
2022/03/31 10:03:17;;;;;;;21.17;12.88;;;;;;;;;;6072812;23;20443;-81
2022/03/31 10:05:46;;;;;;;21.77;12.80;;;;;;;;;;6065736;23;20573;-81
2022/03/31 10:08:14;;;;;;;22.13;11.73;;;;;;;;;;6096837;23;20022;-81
2022/03/31 10:10:43;;;;;;;23.63;16.08;;;;;;;;;;6098649;23;20021;-81
2022/03/31 10:13:17;;;;;;;20.13;12.75;;;;;;;;;;6093740;23;20022;-82
2022/03/31 10:15:46;;;;;;;29.60;15.95;;;;;;;;;;6063182;23;20026;-79
2022/03/31 10:18:17;;;;;;;20.02;13.20;;;;;;;;;;6089491;23;20035;-81
2022/03/31 10:20:56;;;;;;;20.27;13.35;;;;;;;;;;6095872;23;20029;-81
2022/03/31 10:26:22;;;;;;;23.58;14.18;;;;;;;;;;6089580;23;20049;-81
2022/03/31 10:28:58;;;;;;;23.75;12.85;;;;;;;;;;6095171;23;20034;-82
2022/03/31 10:31:37;;;;;;;20.38;13.30;;;;;;;;;;6098524;23;20025;-80
2022/03/31 10:34:07;;;;;;;20.73;13.05;;;;;;;;;;6038221;23;20026;-80
2022/03/31 10:36:39;;;;;;;19.95;12.55;;;;;;;;;;6062294;23;20022;-80
2022/03/31 10:39:09;;;;;;;24.20;13.18;;;;;;;;;;6061641;23;20026;-79
2022/03/31 10:41:38;;;;;;;19.98;11.90;;;;;;;;;;6092258;23;20022;-79
2022/03/31 10:44:12;;;;;;;24.73;14.95;;;;;;;;;;6098666;23;20018;-78
2022/03/31 10:46:42;;;;;;;22.88;15.43;;;;;;;;;;6085777;23;20033;-79
2022/03/31 10:49:12;;;;;;;19.83;11.93;;;;;;;;;;6093019;23;20470;-78
2022/03/31 10:51:42;;;;;;;24.45;11.90;;;;;;;;;;6096913;23;20025;-78
2022/03/31 10:54:12;;;;;;;23.65;13.18;;;;;;;;;;6088698;23;20027;-79
2022/03/31 10:56:40;;;;;;;25.52;16.63;;;;;;;;;;6069979;23;20042;-80
2022/03/31 10:59:08;;;;;;;24.33;14.48;;;;;;;;;;6098849;23;20023;-81
2022/03/31 11:01:37;;;;;;;26.40;14.85;;;;;;;;;;6092293;23;20022;-81
2022/03/31 11:04:08;;;;;;;24.60;14.55;;;;;;;;;;6097882;23;20019;-81
2022/03/31 11:06:49;;;;;;;26.77;14.85;;;;;;;;;;6086216;23;20037;-81
2022/03/31 11:09:21;;;;;;;23.33;12.98;;;;;;;;;;6066969;23;20437;-81
2022/03/31 11:11:56;;;;;;;21.38;12.77;;;;;;;;;;6098750;23;20019;-85
2022/03/31 11:14:24;;;;;;;25.45;17.30;;;;;;;;;;6038420;23;20038;-82
2022/03/31 11:16:53;;;;;;;20.80;12.93;;;;;;;;;;6071231;23;20037;-82
2022/03/31 11:19:22;;;;;;;24.33;14.02;;;;;;;;;;6099653;23;20021;-84
2022/03/31 11:21:50;;;;;;;19.13;12.90;;;;;;;;;;6092904;23;20446;-80
2022/03/31 11:24:24;;;;;;;24.15;13.80;;;;;;;;;;6097206;23;20018;-80
2022/03/31 11:26:54;;;;;;;27.02;14.88;;;;;;;;;;6099150;23;20025;-80
2022/03/31 11:29:26;;;;;;;20.05;12.77;;;;;;;;;;6063077;23;20037;-80
2022/03/31 11:31:54;;;;;;;;;;;;;;;;;;6074707;23;20343;-81
2022/03/31 11:34:28;;;;;;;26.58;15.50;;;;;;;;;;6040189;23;19932;-79
2022/03/31 11:37:00;;;;;;;24.55;12.35;;;;;;;;;;6088991;23;20026;-79
2022/03/31 11:39:30;;;;;;;22.95;14.63;;;;;;;;;;6097813;23;20030;-78
2022/03/31 11:42:00;;;;;;;21.42;13.77;;;;;;;;;;6091761;23;20458;-77
2022/03/31 11:44:32;;;;;;;19.55;12.07;;;;;;;;;;6097592;23;20023;-77
2022/03/31 11:47:05;;;;;;;24.58;12.70;;;;;;;;;;6099054;23;20021;-77
2022/03/31 11:49:45;;;;;;;24.63;13.75;;;;;;;;;;6088329;23;20733;-79
2022/03/31 11:52:28;;;;;;;25.40;12.65;;;;;;;;;;6088503;23;20018;-77
2022/03/31 11:55:00;;;;;;;22.60;14.32;;;;;;;;;;6099349;23;20021;-79
2022/03/31 11:57:28;;;;;;;31.17;15.25;;;;;;;;;;6092639;23;20022;-79
2022/03/31 12:00:07;;;;;;;23.15;14.02;;;;;;;;;;6099017;23;20022;-78
2022/03/31 12:02:35;;;;;;;17.75;14.15;;;;;;;;;;6088681;23;20026;-78
2022/03/31 12:05:04;;;;;;;30.70;15.10;;;;;;;;;;6095106;23;20027;-78
2022/03/31 12:07:32;;;;;;;26.65;13.38;;;;;;;;;;6063762;23;20011;-79
2022/03/31 12:10:00;;;;;;;24.20;14.13;;;;;;;;;;6090984;23;20027;-79
2022/03/31 12:12:28;;;;;;;24.85;14.07;;;;;;;;;;6039078;23;20342;-79
2022/03/31 12:14:58;;;;;;;23.20;15.90;;;;;;;;;;6092686;23;20422;-79
2022/03/31 12:17:26;;;;;;;23.08;17.70;;;;;;;;;;6067980;23;20034;-79
2022/03/31 12:19:54;;;;;;;21.40;12.73;;;;;;;;;;6073303;23;20341;-79
2022/03/31 12:22:35;;;;;;;24.35;15.43;;;;;;;;;;6088129;23;20026;-79
2022/03/31 12:25:03;;;;;;;21.83;12.43;;;;;;;;;;6094085;23;20030;-78
2022/03/31 12:27:31;;;;;;;24.30;13.57;;;;;;;;;;6099025;23;20014;-80
2022/03/31 12:30:00;;;;;;;20.75;13.70;;;;;;;;;;6065551;23;20084;-79
2022/03/31 12:32:33;;;;;;;19.13;13.38;;;;;;;;;;6097115;23;20026;-81
2022/03/31 12:35:02;;;;;;;27.65;20.17;;;;;;;;;;6097156;23;20026;-81
2022/03/31 12:37:35;;;;;;;22.08;14.52;;;;;;;;;;6092286;23;20038;-81
2022/03/31 12:40:20;;;;;;;18.05;12.50;;;;;;;;;;6099023;23;20021;-80
2022/03/31 12:42:57;;;;;;;22.73;11.70;;;;;;;;;;6078732;23;20046;-79
2022/03/31 12:45:28;;;;;;;25.08;14.93;;;;;;;;;;6093293;23;20030;-81
2022/03/31 12:47:56;;;;;;;25.67;13.50;;;;;;;;;;6098186;23;20015;-80
2022/03/31 12:50:26;;;;;;;19.15;12.27;;;;;;;;;;6089073;23;20030;-81
2022/03/31 12:52:58;;;;;;;20.15;13.23;;;;;;;;;;6094868;23;20798;-81
2022/03/31 12:55:32;;;;;;;17.85;12.35;;;;;;;;;;6063597;23;20447;-81
2022/03/31 12:58:00;;;;;;;20.83;13.35;;;;;;;;;;6090644;23;20023;-81
2022/03/31 13:00:29;;;;;;;20.48;14.02;;;;;;;;;;6097071;23;20145;-81
2022/03/31 13:02:59;;;;;;;21.38;14.00;;;;;;;;;;6098647;23;20025;-81
2022/03/31 13:05:28;;;;;;;21.00;15.80;;;;;;;;;;6093142;23;20084;-81
2022/03/31 13:07:57;;;;;;;19.95;11.45;;;;;;;;;;6098045;23;20025;-81
2022/03/31 13:10:25;;;;;;;25.38;15.30;;;;;;;;;;6089037;23;20037;-80
2022/03/31 13:12:54;;;;;;;19.45;13.20;;;;;;;;;;6095456;23;20442;-80
2022/03/31 13:15:23;;;;;;;22.70;14.77;;;;;;;;;;6098487;23;20018;-80
2022/03/31 13:17:51;;;;;;;20.73;14.05;;;;;;;;;;6090614;23;20462;-80
2022/03/31 13:20:20;;;;;;;17.83;12.48;;;;;;;;;;6097684;23;20022;-81
2022/03/31 13:22:49;;;;;;;20.23;11.48;;;;;;;;;;6098045;23;20430;-81
2022/03/31 13:25:18;;;;;;;23.08;15.75;;;;;;;;;;6093119;23;20034;-80
2022/03/31 13:27:46;;;;;;;24.55;14.38;;;;;;;;;;6097893;23;20011;-80
2022/03/31 13:30:15;;;;;;;18.90;12.05;;;;;;;;;;6089707;23;20031;-79
2022/03/31 13:32:44;;;;;;;24.98;13.35;;;;;;;;;;6097362;23;20022;-78
2022/03/31 13:35:12;;;;;;;22.52;14.30;;;;;;;;;;6096611;23;20339;-79
2022/03/31 13:37:40;;;;;;;25.70;14.25;;;;;;;;;;6090743;23;20030;-79
2022/03/31 13:40:11;;;;;;;20.33;14.55;;;;;;;;;;6097678;23;20018;-79
2022/03/31 13:42:40;;;;;;;20.48;12.63;;;;;;;;;;6098853;23;20016;-81
2022/03/31 13:45:11;;;;;;;16.38;12.32;;;;;;;;;;6094060;23;20023;-80
2022/03/31 13:47:42;;;;;;;23.80;12.60;;;;;;;;;;6072724;23;20014;-82
2022/03/31 13:50:14;;;;;;;18.80;11.48;;;;;;;;;;6089931;23;20022;-80
2022/03/31 13:53:43;;;;;;;22.52;11.77;;;;;;;;;;6094625;23;20023;-80
2022/03/31 13:55:33;;;;;;;23.50;14.35;;;;;;;;;;6065545;23;20037;-82
2022/03/31 14:03:37;;;;;;;26.17;15.25;;;;;;;;;;6098612;23;20025;-82
2022/03/31 14:06:06;;;;;;;24.55;15.00;;;;;;;;;;6090049;23;20030;-83
2022/03/31 14:08:34;;;;;;;17.67;11.25;;;;;;;;;;6095721;23;20023;-83
2022/03/31 14:11:05;;;;;;;24.13;14.43;;;;;;;;;;6098815;23;20014;-79
2022/03/31 14:13:38;;;;;;;22.92;12.93;;;;;;;;;;6066030;23;20031;-83
2022/03/31 14:16:07;;;;;;;18.42;11.55;;;;;;;;;;6073277;23;20022;-83
2022/03/31 14:18:37;;;;;;;20.83;13.68;;;;;;;;;;6086826;23;20033;-83
2022/03/31 14:21:06;;;;;;;20.45;13.32;;;;;;;;;;6062539;23;20497;-82
2022/03/31 14:23:35;;;;;;;19.77;10.65;;;;;;;;;;6072488;23;20014;-82
2022/03/31 14:26:04;;;;;;;22.77;12.43;;;;;;;;;;6040356;23;20033;-82
2022/03/31 14:28:35;;;;;;;25.13;12.88;;;;;;;;;;6070563;23;20029;-82
2022/03/31 14:31:05;;;;;;;21.92;13.13;;;;;;;;;;6098669;23;20519;-84
2022/03/31 14:33:53;;;;;;;18.70;11.07;;;;;;;;;;6066445;23;20489;-81
2022/03/31 14:36:22;;;;;;;25.27;12.48;;;;;;;;;;6090040;23;20018;-81
2022/03/31 14:38:52;;;;;;;22.65;14.48;;;;;;;;;;6085696;23;20041;-80
2022/03/31 14:55:04;;;;;;;21.00;11.45;;;;;;;;;;6070734;23;20470;-80
2022/03/31 14:57:32;;;;;;;18.00;10.90;;;;;;;;;;6093898;23;20486;-80
2022/03/31 15:00:02;;;;;;;20.83;13.45;;;;;;;;;;6100285;23;20460;-80
2022/03/31 15:02:31;;;;;;;18.10;11.68;;;;;;;;;;6089757;23;20037;-81
2022/03/31 15:04:59;;;;;;;18.65;12.35;;;;;;;;;;6096067;23;20026;-80
2022/03/31 15:07:28;;;;;;;20.05;13.23;;;;;;;;;;6099672;23;20014;-81
2022/03/31 15:15:29;;;;;;;18.08;13.35;;;;;;;;;;6074185;23;20015;-81
2022/03/31 15:17:59;;;;;;;19.33;12.15;;;;;;;;;;6090801;23;20022;-81